createdAt,value
2018-11-03T00:49:28.745Z,0.00
2018-11-03T00:50:07.661Z,0.00
2018-11-03T00:52:00.452Z,0.00
2018-11-03T00:53:00.385Z,0.00
2018-11-03T00:54:53.214Z,0.00
2018-11-03T00:55:53.109Z,0.00
2018-11-03T00:57:45.899Z,0.00
2018-11-03T00:58:45.834Z,0.00
2018-11-03T01:00:38.650Z,0.00
2018-11-03T01:01:38.558Z,0.00
2018-11-03T01:03:31.346Z,0.00
2018-11-03T01:04:31.283Z,0.00
2018-11-03T01:06:24.101Z,0.00
2018-11-03T01:07:24.007Z,0.00
2018-11-03T01:09:16.799Z,0.00
2018-11-03T01:10:16.737Z,0.00
2018-11-03T01:12:09.556Z,0.00
2018-11-03T01:13:09.469Z,0.00
2018-11-03T01:15:02.248Z,0.00
2018-11-03T01:16:02.187Z,0.00
2018-11-03T01:17:55.004Z,0.00
2018-11-03T01:18:54.914Z,0.00
2018-11-03T01:20:47.698Z,0.00
2018-11-03T01:21:47.637Z,0.00
2018-11-03T01:23:40.474Z,0.00
2018-11-03T01:24:40.359Z,0.00
2018-11-03T01:26:33.149Z,0.00
2018-11-03T01:27:33.126Z,0.00
2018-11-03T01:29:25.903Z,0.00
2018-11-03T01:30:25.811Z,0.00
2018-11-03T01:32:18.606Z,0.00
2018-11-03T01:33:18.537Z,0.00
2018-11-03T01:35:11.354Z,0.00
2018-11-03T01:36:11.261Z,0.00
2018-11-03T01:38:04.053Z,0.00
2018-11-03T01:39:03.988Z,0.00
2018-11-03T01:40:56.803Z,0.00
2018-11-03T01:41:56.710Z,0.00
2018-11-03T01:43:49.504Z,0.00
2018-11-03T01:44:49.441Z,0.00
2018-11-03T01:46:42.255Z,0.00
2018-11-03T01:47:42.163Z,0.00
2018-11-03T01:49:34.954Z,0.00
2018-11-03T01:50:34.889Z,0.00
2018-11-03T01:52:27.707Z,0.00
2018-11-03T01:53:27.615Z,0.00
2018-11-03T01:55:20.404Z,0.00
2018-11-03T01:56:20.341Z,0.00
2018-11-03T01:58:13.159Z,0.00
2018-11-03T01:59:13.070Z,0.00
2018-11-03T02:01:05.852Z,0.00
2018-11-03T02:02:05.790Z,0.00
2018-11-03T02:03:58.605Z,0.00
2018-11-03T02:04:58.518Z,0.00
2018-11-03T02:06:51.797Z,0.00
2018-11-03T02:07:51.735Z,0.00
2018-11-03T02:08:51.680Z,0.00
2018-11-03T02:09:51.626Z,0.00
2018-11-03T02:10:51.567Z,0.00
2018-11-03T02:11:51.509Z,0.00
2018-11-03T02:12:51.451Z,0.00
2018-11-03T02:13:51.395Z,0.00
2018-11-03T02:14:51.337Z,0.00
2018-11-03T02:15:51.281Z,0.00
2018-11-03T02:16:51.224Z,0.00
2018-11-03T02:17:51.167Z,0.00
2018-11-03T02:18:51.115Z,0.00
2018-11-03T02:19:51.054Z,0.00
2018-11-03T02:20:50.995Z,0.00
2018-11-03T02:21:50.939Z,0.00
2018-11-03T02:22:50.882Z,0.00
2018-11-03T02:23:50.825Z,0.00
2018-11-03T02:24:50.772Z,0.00
2018-11-03T02:25:50.712Z,0.00
2018-11-03T02:26:50.656Z,0.00
2018-11-03T02:27:50.601Z,0.00
2018-11-03T02:28:50.543Z,0.00
2018-11-03T02:29:50.485Z,0.00
2018-11-03T02:30:50.426Z,0.00
2018-11-03T02:31:50.370Z,0.00
2018-11-03T02:32:50.312Z,0.00
2018-11-03T02:33:50.256Z,0.00
2018-11-03T02:34:50.201Z,0.00
2018-11-03T02:35:50.147Z,0.00
2018-11-03T02:36:50.086Z,0.00
2018-11-03T02:37:50.030Z,0.00
2018-11-03T02:38:49.973Z,0.00
2018-11-03T02:39:49.914Z,0.00
2018-11-03T02:40:49.885Z,0.00
2018-11-03T02:41:49.802Z,0.00
2018-11-03T02:42:49.744Z,0.00
2018-11-03T02:43:49.687Z,0.00
2018-11-03T02:44:49.634Z,0.00
2018-11-03T02:45:49.573Z,0.00
2018-11-03T02:46:49.519Z,0.00
2018-11-03T02:47:49.458Z,0.00
2018-11-03T02:48:49.402Z,0.00
2018-11-03T02:49:49.356Z,0.00
2018-11-03T02:50:49.290Z,0.00
2018-11-03T02:51:49.233Z,0.00
2018-11-03T02:52:49.173Z,0.00
2018-11-03T02:53:49.117Z,0.00
2018-11-03T02:54:49.059Z,0.00
2018-11-03T02:55:49.003Z,0.00
2018-11-03T02:56:48.945Z,0.00
2018-11-03T02:57:48.892Z,0.00
2018-11-03T02:58:48.834Z,0.00
2018-11-03T02:59:48.781Z,0.00
2018-11-03T03:00:48.718Z,0.00
2018-11-03T03:01:48.662Z,0.00
2018-11-03T03:02:48.604Z,0.00
2018-11-03T03:03:48.547Z,0.00
2018-11-03T03:04:48.491Z,0.00
2018-11-03T03:05:48.434Z,0.00
2018-11-03T03:06:48.377Z,0.00
2018-11-03T03:07:48.320Z,0.00
2018-11-03T03:08:48.263Z,0.00
2018-11-03T03:09:48.205Z,0.00
2018-11-03T03:10:48.147Z,0.00
2018-11-03T03:11:48.096Z,0.00
2018-11-03T03:12:48.034Z,0.00
2018-11-03T03:13:47.977Z,0.00
2018-11-03T03:14:47.920Z,0.00
2018-11-03T03:15:47.863Z,0.00
2018-11-03T03:16:47.814Z,0.00
2018-11-03T03:17:47.750Z,0.00
2018-11-03T03:18:47.691Z,0.00
2018-11-03T03:19:47.639Z,0.00
2018-11-03T03:20:47.579Z,0.00
2018-11-03T03:21:47.523Z,0.00
2018-11-03T03:22:47.464Z,0.00
2018-11-03T03:23:47.409Z,0.00
2018-11-03T03:24:47.353Z,0.00
2018-11-03T03:25:47.304Z,0.00
2018-11-03T03:26:47.237Z,0.00
2018-11-03T03:27:47.183Z,0.00
2018-11-03T03:28:47.159Z,0.00
2018-11-03T03:29:47.103Z,0.00
2018-11-03T03:30:47.009Z,0.00
2018-11-03T03:31:46.952Z,0.00
2018-11-03T03:32:46.897Z,0.00
2018-11-03T03:33:46.872Z,0.00
2018-11-03T03:34:46.780Z,0.00
2018-11-03T03:35:46.762Z,0.00
2018-11-03T03:36:46.672Z,0.00
2018-11-03T03:37:46.611Z,0.00
2018-11-03T03:38:46.552Z,0.00
2018-11-03T03:39:46.496Z,0.00
2018-11-03T03:40:46.442Z,0.00
2018-11-03T03:41:46.383Z,0.00
2018-11-03T03:42:46.325Z,0.00
2018-11-03T03:43:46.275Z,0.00
2018-11-03T03:44:46.211Z,0.00
2018-11-03T03:45:46.154Z,0.00
2018-11-03T03:46:46.124Z,0.00
2018-11-03T03:47:46.043Z,0.00
2018-11-03T03:48:45.986Z,0.00
2018-11-03T03:49:45.929Z,0.00
2018-11-03T03:50:45.870Z,0.00
2018-11-03T03:51:45.813Z,0.00
2018-11-03T03:52:45.755Z,0.00
2018-11-03T03:53:45.699Z,0.00
2018-11-03T03:54:45.640Z,0.00
2018-11-03T03:55:45.619Z,0.00
2018-11-03T03:56:45.556Z,0.00
2018-11-03T03:57:45.471Z,0.00
2018-11-03T03:58:45.412Z,0.00
2018-11-03T03:59:45.357Z,0.00
2018-11-03T04:00:45.300Z,0.00
2018-11-03T04:01:45.244Z,0.00
2018-11-03T04:02:45.185Z,0.00
2018-11-03T04:03:45.128Z,0.00
2018-11-03T04:04:45.078Z,0.00
2018-11-03T04:05:45.015Z,0.00
2018-11-03T04:06:44.957Z,0.00
2018-11-03T04:07:44.902Z,0.00
2018-11-03T04:08:44.845Z,0.00
2018-11-03T04:09:44.789Z,0.00
2018-11-03T04:10:44.729Z,0.00
2018-11-03T04:11:44.673Z,0.00
2018-11-03T04:12:44.619Z,0.00
2018-11-03T04:13:44.559Z,0.00
2018-11-03T04:14:44.502Z,0.00
2018-11-03T04:15:44.444Z,0.00
2018-11-03T04:16:44.389Z,0.00
2018-11-03T04:17:44.334Z,0.00
2018-11-03T04:18:44.275Z,0.00
2018-11-03T04:19:44.220Z,0.00
2018-11-03T04:20:44.160Z,0.00
2018-11-03T04:21:44.104Z,0.00
2018-11-03T04:22:44.047Z,0.00
2018-11-03T04:23:43.989Z,0.00
2018-11-03T04:24:43.934Z,0.00
2018-11-03T04:25:43.897Z,0.00
2018-11-03T04:26:43.817Z,0.00
2018-11-03T04:27:43.762Z,0.00
2018-11-03T04:28:43.704Z,0.00
2018-11-03T04:29:43.649Z,0.00
2018-11-03T04:30:43.596Z,0.00
2018-11-03T04:31:43.532Z,0.00
2018-11-03T04:32:43.476Z,0.00
2018-11-03T04:33:43.420Z,0.00
2018-11-03T04:34:43.386Z,0.00
2018-11-03T04:35:43.307Z,0.00
2018-11-03T04:36:43.248Z,0.00
2018-11-03T04:37:43.192Z,0.00
2018-11-03T04:38:43.133Z,0.00
2018-11-03T04:39:43.076Z,0.00
2018-11-03T04:40:43.022Z,0.00
2018-11-03T04:41:42.963Z,0.00
2018-11-03T04:42:42.904Z,0.00
2018-11-03T04:43:42.847Z,0.00
2018-11-03T04:44:42.794Z,0.00
2018-11-03T04:45:42.735Z,0.00
2018-11-03T04:46:42.681Z,0.00
2018-11-03T04:47:42.623Z,0.00
2018-11-03T04:48:42.563Z,0.00
2018-11-03T04:49:42.507Z,0.00
2018-11-03T04:50:42.448Z,0.00
2018-11-03T04:51:42.392Z,0.00
2018-11-03T04:52:42.335Z,0.00
2018-11-03T04:53:42.278Z,0.00
2018-11-03T04:54:42.220Z,0.00
2018-11-03T04:55:42.165Z,0.00
2018-11-03T04:56:42.108Z,0.00
2018-11-03T04:57:42.053Z,0.00
2018-11-03T04:58:41.992Z,0.00
2018-11-03T04:59:41.937Z,0.00
2018-11-03T05:00:41.881Z,0.00
2018-11-03T05:01:41.821Z,0.00
2018-11-03T05:02:41.765Z,0.00
2018-11-03T05:03:41.710Z,0.00
2018-11-03T05:04:41.651Z,0.00
2018-11-03T05:05:41.593Z,0.00
2018-11-03T05:06:41.536Z,0.00
2018-11-03T05:07:41.481Z,0.00
2018-11-03T05:08:41.424Z,0.00
2018-11-03T05:09:41.428Z,0.00
2018-11-03T05:10:41.309Z,0.00
2018-11-03T05:11:41.251Z,0.00
2018-11-03T05:12:41.194Z,0.00
2018-11-03T05:13:41.138Z,0.00
2018-11-03T05:14:41.082Z,0.00
2018-11-03T05:15:41.023Z,0.00
2018-11-03T05:16:40.967Z,0.00
2018-11-03T05:17:40.909Z,0.00
2018-11-03T05:18:40.851Z,0.00
2018-11-03T05:19:40.795Z,0.00
2018-11-03T05:20:40.738Z,0.00
2018-11-03T05:21:40.681Z,0.00
2018-11-03T05:22:40.626Z,0.00
2018-11-03T05:23:40.567Z,0.00
2018-11-03T05:24:40.509Z,0.00
2018-11-03T05:25:40.457Z,0.00
2018-11-03T05:26:40.397Z,0.00
2018-11-03T05:27:40.347Z,0.00
2018-11-03T05:28:40.283Z,0.00
2018-11-03T05:29:40.259Z,0.00
2018-11-03T05:30:40.179Z,0.00
2018-11-03T05:31:40.110Z,0.00
2018-11-03T05:32:40.059Z,0.00
2018-11-03T05:33:39.998Z,0.00
2018-11-03T05:34:39.938Z,0.00
2018-11-03T05:35:39.885Z,0.00
2018-11-03T05:36:39.827Z,0.00
2018-11-03T05:37:39.770Z,0.00
2018-11-03T05:38:39.711Z,0.00
2018-11-03T05:39:39.654Z,0.00
2018-11-03T05:40:39.598Z,0.00
2018-11-03T05:41:39.542Z,0.00
2018-11-03T05:42:39.481Z,0.00
2018-11-03T05:43:39.425Z,0.00
2018-11-03T05:44:39.370Z,0.00
2018-11-03T05:45:39.314Z,0.00
2018-11-03T05:46:39.321Z,0.00
2018-11-03T05:47:39.196Z,0.00
2018-11-03T05:48:39.141Z,0.00
2018-11-03T05:49:39.084Z,0.00
2018-11-03T05:50:39.026Z,0.00
2018-11-03T05:51:38.969Z,0.00
2018-11-03T05:52:38.912Z,0.00
2018-11-03T05:53:38.855Z,0.00
2018-11-03T05:54:38.797Z,0.00
2018-11-03T05:55:39.441Z,0.00
2018-11-03T05:56:38.687Z,0.00
2018-11-03T05:57:38.627Z,0.00
2018-11-03T05:58:38.633Z,0.00
2018-11-03T05:59:38.512Z,0.00
2018-11-03T06:00:38.458Z,0.00
2018-11-03T06:01:38.397Z,0.00
2018-11-03T06:02:38.343Z,0.00
2018-11-03T06:03:38.293Z,0.00
2018-11-03T06:04:38.228Z,0.00
2018-11-03T06:05:38.171Z,0.00
2018-11-03T06:06:38.115Z,0.00
2018-11-03T06:07:38.058Z,0.00
2018-11-03T06:08:38.021Z,0.00
2018-11-03T06:09:37.946Z,0.00
2018-11-03T06:10:37.887Z,0.00
2018-11-03T06:11:37.829Z,0.00
2018-11-03T06:12:37.771Z,0.00
2018-11-03T06:13:37.714Z,0.00
2018-11-03T06:14:37.657Z,0.00
2018-11-03T06:15:37.662Z,0.00
2018-11-03T06:16:37.542Z,0.00
2018-11-03T06:17:37.487Z,0.00
2018-11-03T06:18:37.435Z,0.00
2018-11-03T06:19:37.372Z,0.00
2018-11-03T06:20:37.314Z,0.00
2018-11-03T06:21:37.271Z,0.00
2018-11-03T06:22:37.311Z,0.00
2018-11-03T06:23:37.235Z,0.00
2018-11-03T06:24:37.086Z,0.00
2018-11-03T06:25:37.029Z,0.00
2018-11-03T06:26:36.979Z,0.00
2018-11-03T06:27:36.917Z,0.00
2018-11-03T06:28:36.859Z,0.00
2018-11-03T06:29:36.801Z,0.00
2018-11-03T06:30:36.744Z,0.00
2018-11-03T06:31:36.685Z,0.00
2018-11-03T06:32:36.631Z,0.00
2018-11-03T06:33:36.573Z,0.00
2018-11-03T06:34:36.527Z,0.00
2018-11-03T06:35:36.466Z,0.00
2018-11-03T06:36:36.401Z,0.00
2018-11-03T06:37:36.343Z,0.00
2018-11-03T06:38:36.286Z,0.00
2018-11-03T06:39:36.231Z,0.00
2018-11-03T06:40:36.171Z,0.00
2018-11-03T06:41:36.118Z,0.00
2018-11-03T06:42:36.058Z,0.00
2018-11-03T06:43:36.002Z,0.00
2018-11-03T06:44:35.951Z,0.00
2018-11-03T06:45:35.891Z,0.00
2018-11-03T06:46:35.927Z,0.00
2018-11-03T06:47:35.928Z,0.00
2018-11-03T06:48:35.716Z,0.00
2018-11-03T06:49:35.667Z,0.00
2018-11-03T06:50:35.602Z,0.00
2018-11-03T06:51:35.544Z,0.00
2018-11-03T06:52:35.489Z,0.00
2018-11-03T06:53:35.437Z,0.00
2018-11-03T06:54:35.373Z,0.00
2018-11-03T06:55:35.315Z,0.00
2018-11-03T06:56:35.259Z,0.00
2018-11-03T06:57:35.239Z,0.00
2018-11-03T06:58:35.142Z,0.00
2018-11-03T06:59:35.087Z,0.00
2018-11-03T07:00:35.033Z,0.00
2018-11-03T07:01:34.975Z,0.00
2018-11-03T07:02:34.918Z,0.00
2018-11-03T07:03:34.859Z,0.00
2018-11-03T07:04:34.803Z,0.00
2018-11-03T07:05:34.749Z,0.00
2018-11-03T07:06:34.687Z,0.00
2018-11-03T07:07:34.633Z,0.00
2018-11-03T07:08:34.573Z,0.00
2018-11-03T07:09:34.517Z,0.00
2018-11-03T07:10:34.458Z,0.00
2018-11-03T07:11:34.449Z,0.00
2018-11-03T07:12:34.489Z,0.00
2018-11-03T07:13:34.288Z,0.00
2018-11-03T07:14:34.231Z,0.00
2018-11-03T07:15:34.174Z,0.00
2018-11-03T07:16:34.123Z,0.00
2018-11-03T07:17:34.065Z,0.00
2018-11-03T07:18:34.002Z,0.00
2018-11-03T07:19:33.944Z,0.00
2018-11-03T07:20:33.891Z,0.00
2018-11-03T07:21:33.901Z,0.00
2018-11-03T07:22:33.787Z,0.00
2018-11-03T07:23:33.716Z,0.00
2018-11-03T07:24:33.661Z,0.00
2018-11-03T07:25:33.601Z,0.00
2018-11-03T07:26:34.461Z,4.00
2018-11-03T07:27:33.491Z,4.00
2018-11-03T07:28:33.432Z,4.00
2018-11-03T07:29:33.378Z,4.00
2018-11-03T07:30:33.318Z,4.00
2018-11-03T07:31:33.260Z,4.00
2018-11-03T07:32:33.204Z,0.00
2018-11-03T07:33:33.145Z,0.00
2018-11-03T07:34:33.089Z,0.00
2018-11-03T07:35:33.031Z,0.00
2018-11-03T07:36:32.975Z,0.00
2018-11-03T07:37:32.917Z,0.00
2018-11-03T07:38:32.864Z,0.00
2018-11-03T07:39:32.809Z,0.00
2018-11-03T07:40:32.746Z,0.00
2018-11-03T07:41:32.792Z,0.00
2018-11-03T07:42:32.697Z,0.00
2018-11-03T07:43:32.577Z,0.00
2018-11-03T07:44:32.519Z,0.00
2018-11-03T07:45:32.461Z,0.00
2018-11-03T07:46:32.403Z,0.00
2018-11-03T07:47:32.350Z,0.00
2018-11-03T07:48:32.302Z,0.00
2018-11-03T07:49:32.233Z,0.00
2018-11-03T07:50:32.177Z,0.00
2018-11-03T07:51:32.121Z,0.00
2018-11-03T07:52:32.062Z,0.00
2018-11-03T07:53:32.005Z,0.00
2018-11-03T07:54:32.000Z,0.00
2018-11-03T07:55:31.889Z,0.00
2018-11-03T07:56:31.832Z,0.00
2018-11-03T07:57:31.775Z,0.00
2018-11-03T07:58:31.717Z,0.00
2018-11-03T07:59:31.665Z,0.00
2018-11-03T08:00:31.611Z,0.00
2018-11-03T08:01:31.547Z,0.00
2018-11-03T08:02:31.489Z,0.00
2018-11-03T08:03:31.432Z,0.00
2018-11-03T08:04:31.377Z,0.00
2018-11-03T08:05:31.318Z,0.00
2018-11-03T08:06:31.278Z,0.00
2018-11-03T08:07:31.203Z,0.00
2018-11-03T08:08:31.159Z,0.00
2018-11-03T08:09:31.091Z,0.00
2018-11-03T08:10:31.044Z,0.00
2018-11-03T08:11:30.979Z,0.00
2018-11-03T08:12:30.919Z,4.00
2018-11-03T08:13:30.862Z,4.00
2018-11-03T08:14:30.811Z,4.00
2018-11-03T08:15:30.758Z,4.00
2018-11-03T08:16:30.697Z,4.00
2018-11-03T08:17:30.634Z,4.00
2018-11-03T08:18:30.576Z,4.00
2018-11-03T08:19:30.519Z,4.00
2018-11-03T08:20:30.466Z,4.00
2018-11-03T08:21:30.406Z,4.00
2018-11-03T08:22:30.349Z,4.00
2018-11-03T08:23:30.292Z,4.00
2018-11-03T08:24:30.282Z,4.00
2018-11-03T08:25:30.179Z,4.00
2018-11-03T08:26:30.121Z,4.00
2018-11-03T08:27:30.082Z,0.00
2018-11-03T08:28:30.008Z,0.00
2018-11-03T08:29:29.949Z,0.00
2018-11-03T08:30:29.894Z,0.00
2018-11-03T08:31:29.852Z,0.00
2018-11-03T08:32:29.778Z,0.00
2018-11-03T08:33:29.723Z,0.00
2018-11-03T08:34:29.667Z,0.00
2018-11-03T08:35:29.609Z,0.00
2018-11-03T08:36:29.550Z,0.00
2018-11-03T08:37:29.498Z,0.00
2018-11-03T08:38:29.435Z,0.00
2018-11-03T08:39:29.491Z,0.00
2018-11-03T08:40:29.322Z,0.00
2018-11-03T08:41:29.267Z,0.00
2018-11-03T08:42:29.206Z,0.00
2018-11-03T08:43:29.160Z,4.00
2018-11-03T08:44:29.093Z,4.00
2018-11-03T08:45:29.036Z,4.00
2018-11-03T08:46:28.982Z,4.00
2018-11-03T08:47:28.921Z,4.00
2018-11-03T08:48:28.871Z,4.00
2018-11-03T08:49:28.808Z,4.00
2018-11-03T08:50:28.750Z,4.00
2018-11-03T08:51:28.697Z,4.00
2018-11-03T08:52:28.638Z,0.00
2018-11-03T08:53:28.581Z,4.00
2018-11-03T08:54:28.521Z,4.00
2018-11-03T08:55:28.466Z,4.00
2018-11-03T08:56:28.434Z,0.00
2018-11-03T08:57:28.352Z,0.00
2018-11-03T08:58:28.295Z,4.00
2018-11-03T08:59:28.251Z,4.00
2018-11-03T09:00:28.181Z,4.00
2018-11-03T09:01:28.125Z,4.00
2018-11-03T09:02:28.067Z,4.00
2018-11-03T09:03:28.012Z,4.00
2018-11-03T09:04:27.956Z,4.00
2018-11-03T09:05:27.911Z,4.00
2018-11-03T09:06:27.849Z,4.00
2018-11-03T09:07:27.785Z,4.00
2018-11-03T09:08:27.725Z,4.00
2018-11-03T09:09:27.667Z,4.00
2018-11-03T09:10:27.610Z,4.00
2018-11-03T09:11:27.558Z,4.00
2018-11-03T09:12:27.499Z,0.00
2018-11-03T09:13:27.440Z,0.00
2018-11-03T09:14:27.454Z,0.00
2018-11-03T09:15:27.326Z,0.00
2018-11-03T09:16:27.272Z,0.00
2018-11-03T09:17:27.212Z,0.00
2018-11-03T09:18:27.156Z,0.00
2018-11-03T09:19:27.096Z,0.00
2018-11-03T09:20:27.043Z,0.00
2018-11-03T09:21:26.987Z,0.00
2018-11-03T09:22:26.950Z,0.00
2018-11-03T09:23:26.870Z,0.00
2018-11-03T09:24:26.812Z,0.00
2018-11-03T09:25:26.760Z,0.00
2018-11-03T09:26:26.697Z,0.00
2018-11-03T09:27:26.640Z,0.00
2018-11-03T09:28:26.584Z,4.00
2018-11-03T09:29:26.527Z,4.00
2018-11-03T09:30:26.472Z,4.00
2018-11-03T09:31:26.415Z,4.00
2018-11-03T09:32:26.358Z,4.00
2018-11-03T09:33:26.298Z,0.00
2018-11-03T09:34:26.261Z,0.00
2018-11-03T09:35:26.189Z,0.00
2018-11-03T09:36:26.130Z,0.00
2018-11-03T09:37:26.071Z,0.00
2018-11-03T09:38:26.032Z,0.00
2018-11-03T09:39:25.958Z,0.00
2018-11-03T09:40:25.904Z,4.00
2018-11-03T09:41:25.844Z,0.00
2018-11-03T09:42:25.784Z,0.00
2018-11-03T09:43:25.759Z,0.00
2018-11-03T09:44:25.672Z,4.00
2018-11-03T09:45:25.615Z,8.00
2018-11-03T09:46:25.612Z,12.00
2018-11-03T09:47:25.502Z,20.00
2018-11-03T09:48:25.447Z,20.00
2018-11-03T09:49:25.433Z,20.00
2018-11-03T09:50:25.360Z,24.00
2018-11-03T09:51:25.272Z,20.00
2018-11-03T09:52:25.215Z,16.00
2018-11-03T09:53:25.160Z,4.00
2018-11-03T09:54:25.102Z,4.00
2018-11-03T09:55:25.045Z,4.00
2018-11-03T09:56:25.021Z,4.00
2018-11-03T09:57:24.931Z,4.00
2018-11-03T09:58:25.491Z,4.00
2018-11-03T09:59:24.818Z,4.00
2018-11-03T10:00:24.759Z,4.00
2018-11-03T10:01:24.703Z,4.00
2018-11-03T10:02:24.645Z,4.00
2018-11-03T10:03:24.590Z,0.00
2018-11-03T10:04:24.535Z,0.00
2018-11-03T10:05:24.477Z,0.00
2018-11-03T10:06:24.491Z,0.00
2018-11-03T10:07:24.364Z,0.00
2018-11-03T10:08:24.306Z,0.00
2018-11-03T10:09:24.246Z,4.00
2018-11-03T10:10:24.192Z,4.00
2018-11-03T10:11:24.132Z,4.00
2018-11-03T10:12:24.075Z,4.00
2018-11-03T10:13:24.018Z,0.00
2018-11-03T10:14:23.960Z,0.00
2018-11-03T10:15:23.905Z,0.00
2018-11-03T10:16:23.847Z,0.00
2018-11-03T10:17:23.794Z,0.00
2018-11-03T10:18:23.734Z,0.00
2018-11-03T10:19:23.676Z,0.00
2018-11-03T10:20:23.619Z,0.00
2018-11-03T10:21:23.562Z,0.00
2018-11-03T10:22:23.689Z,4.00
2018-11-03T10:23:23.452Z,4.00
2018-11-03T10:24:23.391Z,4.00
2018-11-03T10:25:23.335Z,4.00
2018-11-03T10:26:23.276Z,4.00
2018-11-03T10:27:23.222Z,8.00
2018-11-03T10:28:23.163Z,4.00
2018-11-03T10:29:23.107Z,4.00
2018-11-03T10:30:23.051Z,4.00
2018-11-03T10:31:22.991Z,4.00
2018-11-03T10:32:22.936Z,4.00
2018-11-03T10:33:22.934Z,4.00
2018-11-03T10:34:22.820Z,4.00
2018-11-03T10:35:22.763Z,4.00
2018-11-03T10:36:22.710Z,4.00
2018-11-03T10:37:22.656Z,4.00
2018-11-03T10:38:22.594Z,4.00
2018-11-03T10:39:22.535Z,4.00
2018-11-03T10:40:22.480Z,4.00
2018-11-03T10:41:22.422Z,4.00
2018-11-03T10:42:22.364Z,8.00
2018-11-03T10:43:22.309Z,4.00
2018-11-03T10:44:22.254Z,4.00
2018-11-03T10:45:22.195Z,4.00
2018-11-03T10:46:22.187Z,4.00
2018-11-03T10:47:22.080Z,0.00
2018-11-03T10:48:22.024Z,4.00
2018-11-03T10:49:21.966Z,4.00
2018-11-03T10:50:21.908Z,4.00
2018-11-03T10:51:21.855Z,4.00
2018-11-03T10:52:21.795Z,4.00
2018-11-03T10:53:21.769Z,4.00
2018-11-03T10:54:21.688Z,4.00
2018-11-03T10:55:21.625Z,4.00
2018-11-03T10:56:21.571Z,4.00
2018-11-03T10:57:21.511Z,4.00
2018-11-03T10:58:21.452Z,4.00
2018-11-03T10:59:21.399Z,8.00
2018-11-03T11:00:21.339Z,8.00
2018-11-03T11:01:21.281Z,8.00
2018-11-03T11:02:21.225Z,4.00
2018-11-03T11:03:21.193Z,4.00
2018-11-03T11:04:21.113Z,4.00
2018-11-03T11:05:21.060Z,4.00
2018-11-03T11:06:20.996Z,4.00
2018-11-03T11:07:20.948Z,4.00
2018-11-03T11:08:20.882Z,4.00
2018-11-03T11:09:20.826Z,4.00
2018-11-03T11:10:20.770Z,4.00
2018-11-03T11:11:20.713Z,8.00
2018-11-03T11:12:20.655Z,8.00
2018-11-03T11:13:20.609Z,8.00
2018-11-03T11:14:20.742Z,8.00
2018-11-03T11:15:20.484Z,8.00
2018-11-03T11:16:20.557Z,4.00
2018-11-03T11:17:20.373Z,4.00
2018-11-03T11:18:20.313Z,4.00
2018-11-03T11:19:20.256Z,8.00
2018-11-03T11:20:20.200Z,8.00
2018-11-03T11:21:20.143Z,8.00
2018-11-03T11:22:20.085Z,8.00
2018-11-03T11:23:20.032Z,4.00
2018-11-03T11:24:20.256Z,8.00
2018-11-03T11:25:20.049Z,8.00
2018-11-03T11:26:19.858Z,8.00
2018-11-03T11:27:19.801Z,8.00
2018-11-03T11:28:19.743Z,8.00
2018-11-03T11:29:19.689Z,8.00
2018-11-03T11:30:19.632Z,8.00
2018-11-03T11:31:19.631Z,8.00
2018-11-03T11:32:19.544Z,8.00
2018-11-03T11:33:19.458Z,8.00
2018-11-03T11:34:19.401Z,8.00
2018-11-03T11:35:19.346Z,8.00
2018-11-03T11:36:19.288Z,8.00
2018-11-03T11:37:19.298Z,8.00
2018-11-03T11:38:19.208Z,8.00
2018-11-03T11:39:19.125Z,8.00
2018-11-03T11:40:21.012Z,8.00
2018-11-03T11:41:19.003Z,8.00
2018-11-03T11:42:18.948Z,8.00
2018-11-03T11:43:19.008Z,12.00
2018-11-03T11:44:18.832Z,8.00
2018-11-03T11:45:18.779Z,8.00
2018-11-03T11:46:18.718Z,8.00
2018-11-03T11:47:18.664Z,8.00
2018-11-03T11:48:18.605Z,8.00
2018-11-03T11:49:18.548Z,8.00
2018-11-03T11:50:18.491Z,12.00
2018-11-03T11:51:18.438Z,12.00
2018-11-03T11:52:18.377Z,12.00
2018-11-03T11:53:18.320Z,12.00
2018-11-03T11:54:18.263Z,12.00
2018-11-03T11:55:18.206Z,12.00
2018-11-03T11:56:18.153Z,24.00
2018-11-03T11:57:18.098Z,32.00
2018-11-03T11:58:18.068Z,32.00
2018-11-03T11:59:18.521Z,32.00
2018-11-03T12:00:17.925Z,32.00
2018-11-03T12:01:17.864Z,28.00
2018-11-03T12:02:17.870Z,28.00
2018-11-03T12:03:17.754Z,24.00
2018-11-03T12:04:17.693Z,24.00
2018-11-03T12:05:17.636Z,24.00
2018-11-03T12:06:17.579Z,24.00
2018-11-03T12:07:17.526Z,24.00
2018-11-03T12:08:17.500Z,24.00
2018-11-03T12:09:17.414Z,24.00
2018-11-03T12:10:17.382Z,20.00
2018-11-03T12:11:17.296Z,20.00
2018-11-03T12:12:17.241Z,20.00
2018-11-03T12:13:17.182Z,20.00
2018-11-03T12:14:17.124Z,20.00
2018-11-03T12:15:17.069Z,8.00
2018-11-03T12:16:17.189Z,8.00
2018-11-03T12:17:16.956Z,12.00
2018-11-03T12:18:16.915Z,8.00
2018-11-03T12:19:16.840Z,8.00
2018-11-03T12:20:16.786Z,12.00
2018-11-03T12:21:16.727Z,8.00
2018-11-03T12:22:16.675Z,8.00
2018-11-03T12:23:16.613Z,12.00
2018-11-03T12:24:16.557Z,12.00
2018-11-03T12:25:16.500Z,8.00
2018-11-03T12:26:16.443Z,12.00
2018-11-03T12:27:16.386Z,8.00
2018-11-03T12:28:16.367Z,12.00
2018-11-03T12:29:16.271Z,12.00
2018-11-03T12:30:16.218Z,12.00
2018-11-03T12:31:16.158Z,12.00
2018-11-03T12:32:16.102Z,8.00
2018-11-03T12:33:16.045Z,16.00
2018-11-03T12:34:15.989Z,20.00
2018-11-03T12:35:15.932Z,16.00
2018-11-03T12:36:15.875Z,20.00
2018-11-03T12:37:15.818Z,16.00
2018-11-03T12:38:15.764Z,20.00
2018-11-03T12:39:15.705Z,20.00
2018-11-03T12:40:15.647Z,28.00
2018-11-03T12:41:15.646Z,24.00
2018-11-03T12:42:15.533Z,24.00
2018-11-03T12:43:15.477Z,20.00
2018-11-03T12:44:15.421Z,20.00
2018-11-03T12:45:15.364Z,20.00
2018-11-03T12:46:15.349Z,20.00
2018-11-03T12:47:15.250Z,16.00
2018-11-03T12:48:15.283Z,16.00
2018-11-03T12:49:15.138Z,12.00
2018-11-03T12:50:15.079Z,16.00
2018-11-03T12:51:15.024Z,12.00
2018-11-03T12:52:14.966Z,12.00
2018-11-03T12:53:14.915Z,16.00
2018-11-03T12:54:14.852Z,24.00
2018-11-03T12:55:14.801Z,24.00
2018-11-03T12:56:14.740Z,24.00
2018-11-03T12:57:14.698Z,24.00
2018-11-03T12:58:14.628Z,28.00
2018-11-03T12:59:14.625Z,24.00
2018-11-03T13:00:14.514Z,16.00
2018-11-03T13:01:14.462Z,12.00
2018-11-03T13:02:14.398Z,16.00
2018-11-03T13:03:14.361Z,12.00
2018-11-03T13:04:14.285Z,12.00
2018-11-03T13:05:14.545Z,8.00
2018-11-03T13:06:14.174Z,8.00
2018-11-03T13:07:14.115Z,8.00
2018-11-03T13:08:14.059Z,4.00
2018-11-03T13:09:14.114Z,8.00
2018-11-03T13:10:13.948Z,8.00
2018-11-03T13:11:13.888Z,8.00
2018-11-03T13:12:13.881Z,8.00
2018-11-03T13:13:13.776Z,8.00
2018-11-03T13:14:13.717Z,4.00
2018-11-03T13:15:13.660Z,8.00
2018-11-03T13:16:13.607Z,12.00
2018-11-03T13:17:13.548Z,8.00
2018-11-03T13:18:13.491Z,8.00
2018-11-03T13:19:13.433Z,8.00
2018-11-03T13:20:13.386Z,8.00
2018-11-03T13:21:13.323Z,8.00
2018-11-03T13:22:13.265Z,8.00
2018-11-03T13:23:13.210Z,8.00
2018-11-03T13:24:13.150Z,12.00
2018-11-03T13:25:13.096Z,8.00
2018-11-03T13:26:13.038Z,8.00
2018-11-03T13:27:12.981Z,8.00
2018-11-03T13:28:12.922Z,4.00
2018-11-03T13:29:12.868Z,4.00
2018-11-03T13:30:12.809Z,4.00
2018-11-03T13:31:12.753Z,4.00
2018-11-03T13:32:12.701Z,4.00
2018-11-03T13:33:12.640Z,8.00
2018-11-03T13:34:12.583Z,8.00
2018-11-03T13:35:12.529Z,8.00
2018-11-03T13:36:12.476Z,4.00
2018-11-03T13:37:12.416Z,4.00
2018-11-03T13:38:12.360Z,8.00
2018-11-03T13:39:12.303Z,8.00
2018-11-03T13:40:12.247Z,8.00
2018-11-03T13:41:12.188Z,4.00
2018-11-03T13:42:12.130Z,4.00
2018-11-03T13:43:12.078Z,4.00
2018-11-03T13:44:12.018Z,4.00
2018-11-03T13:45:11.962Z,8.00
2018-11-03T13:46:11.903Z,4.00
2018-11-03T13:47:11.919Z,4.00
2018-11-03T13:48:11.790Z,4.00
2018-11-03T13:49:11.735Z,8.00
2018-11-03T13:50:11.682Z,8.00
2018-11-03T13:51:11.620Z,8.00
2018-11-03T13:52:11.564Z,8.00
2018-11-03T13:53:11.507Z,4.00
2018-11-03T13:54:11.450Z,8.00
2018-11-03T13:55:11.398Z,8.00
2018-11-03T13:56:11.341Z,8.00
2018-11-03T13:57:11.437Z,12.00
2018-11-03T13:58:11.224Z,16.00
2018-11-03T13:59:11.168Z,16.00
2018-11-03T14:00:11.114Z,16.00
2018-11-03T14:01:11.055Z,12.00
2018-11-03T14:02:10.998Z,12.00
2018-11-03T14:03:10.943Z,8.00
2018-11-03T14:04:10.884Z,8.00
2018-11-03T14:05:10.829Z,8.00
2018-11-03T14:06:10.771Z,4.00
2018-11-03T14:07:10.715Z,8.00
2018-11-03T14:08:10.664Z,8.00
2018-11-03T14:09:10.603Z,4.00
2018-11-03T14:10:10.548Z,8.00
2018-11-03T14:11:10.520Z,4.00
2018-11-03T14:12:10.433Z,4.00
2018-11-03T14:13:10.376Z,4.00
2018-11-03T14:14:10.321Z,4.00
2018-11-03T14:15:10.297Z,4.00
2018-11-03T14:16:10.206Z,8.00
2018-11-03T14:17:10.214Z,8.00
2018-11-03T14:18:10.095Z,8.00
2018-11-03T14:19:10.045Z,8.00
2018-11-03T14:20:09.980Z,4.00
2018-11-03T14:21:09.922Z,0.00
2018-11-03T14:22:09.866Z,4.00
2018-11-03T14:23:09.848Z,4.00
2018-11-03T14:24:09.753Z,4.00
2018-11-03T14:25:09.697Z,4.00
2018-11-03T14:26:09.641Z,4.00
2018-11-03T14:27:09.583Z,8.00